Time;durP1;ratioP1;P1;durP2;ratioP2;P2;SDS_P1;SDS_P2;PMS_P1;PMS_P2;Temp;Humidity;BMP_temperature;BMP_pressure;BME280_temperature;BME280_humidity;BME280_pressure;Samples;Min_cycle;Max_cycle;Signal;HPM_P1;HPM_P2
2022/10/03 00:00:34;;;;;;;12.07;2.83;;;10.50;98.30;;;;;;5056812;28;20110;-83
2022/10/03 00:03:42;;;;;;;11.57;3.03;;;10.50;98.50;;;;;;5039309;28;20021;-83
2022/10/03 00:06:21;;;;;;;8.90;2.63;;;10.50;98.60;;;;;;5039415;28;20017;-83
2022/10/03 00:09:15;;;;;;;9.53;2.93;;;10.40;98.60;;;;;;5057354;28;20049;-83
2022/10/03 00:12:46;;;;;;;12.80;2.83;;;10.40;98.70;;;;;;5039562;28;20040;-83
2022/10/03 00:15:25;;;;;;;12.60;3.07;;;10.40;98.80;;;;;;4952520;29;20422;-79
2022/10/03 00:17:54;;;;;;;9.20;2.50;;;10.40;98.90;;;;;;5055545;28;20126;-79
2022/10/03 00:20:41;;;;;;;9.23;2.50;;;10.30;98.90;;;;;;5056752;28;20037;-79
2022/10/03 00:23:23;;;;;;;9.10;2.90;;;10.30;99.10;;;;;;5039305;28;20037;-79
2022/10/03 00:25:58;;;;;;;12.07;3.10;;;10.30;99.10;;;;;;5038780;28;20060;-79
2022/10/03 00:29:06;;;;;;;14.03;2.73;;;10.30;99.20;;;;;;5038727;28;20036;-79
2022/10/03 00:31:46;;;;;;;14.33;3.10;;;10.30;99.40;;;;;;5039355;28;20021;-80
2022/10/03 00:34:43;;;;;;;8.67;2.60;;;10.30;99.50;;;;;;5039092;28;20123;-79
2022/10/03 00:37:49;;;;;;;11.20;3.23;;;10.30;99.60;;;;;;5038917;28;20469;-79
2022/10/03 00:40:39;;;;;;;12.30;2.87;;;10.30;99.60;;;;;;4989634;28;20045;-79
2022/10/03 00:43:28;;;;;;;13.50;3.37;;;10.30;99.70;;;;;;5035179;28;20033;-80
2022/10/03 00:46:29;;;;;;;12.43;3.57;;;10.30;99.70;;;;;;5018525;28;20029;-80
2022/10/03 00:49:03;;;;;;;8.50;2.90;;;10.20;99.90;;;;;;4979200;28;20061;-80
2022/10/03 00:51:51;;;;;;;11.43;2.87;;;10.30;99.90;;;;;;5035025;28;20030;-80
2022/10/03 00:54:40;;;;;;;11.77;2.70;;;10.20;99.90;;;;;;5018462;28;20108;-79
2022/10/03 00:57:19;;;;;;;9.93;2.83;;;10.20;99.90;;;;;;5018317;28;20389;-80
2022/10/03 01:00:07;;;;;;;11.67;3.27;;;10.20;99.90;;;;;;5034578;28;20053;-79
2022/10/03 01:02:38;;;;;;;17.93;3.30;;;10.20;99.90;;;;;;5034818;28;20029;-80
2022/10/03 01:05:42;;;;;;;10.47;3.53;;;10.10;99.90;;;;;;5034745;28;20026;-79
2022/10/03 01:08:35;;;;;;;9.00;3.13;;;10.10;99.90;;;;;;5034021;28;20034;-79
2022/10/03 01:11:14;;;;;;;18.43;3.63;;;10.10;99.90;;;;;;5045393;28;20071;-79
2022/10/03 01:14:04;;;;;;;16.73;3.33;;;10.10;99.90;;;;;;5037986;28;20025;-80
2022/10/03 01:16:38;;;;;;;13.73;2.90;;;10.00;99.90;;;;;;5056159;28;20052;-84
2022/10/03 01:19:26;;;;;;;22.08;3.78;;;10.00;99.90;;;;;;5038205;28;20036;-84
2022/10/03 01:22:15;;;;;;;9.80;2.30;;;10.00;99.90;;;;;;5038014;28;20531;-83
2022/10/03 01:24:57;;;;;;;10.73;3.63;;;10.00;99.90;;;;;;5037804;28;20031;-84
2022/10/03 01:30:41;;;;;;;12.47;3.70;;;10.00;99.90;;;;;;5055809;28;20039;-84
2022/10/03 01:33:22;;;;;;;8.60;2.67;;;9.90;99.90;;;;;;5037689;28;20078;-84
2022/10/03 01:35:57;;;;;;;9.00;3.37;;;9.90;99.90;;;;;;5038085;28;20025;-85
2022/10/03 01:38:26;;;;;;;10.67;3.50;;;9.90;99.90;;;;;;5037870;28;20104;-84
2022/10/03 01:41:05;;;;;;;12.43;3.17;;;9.90;99.90;;;;;;5054441;28;20472;-84
2022/10/03 01:43:54;;;;;;;12.07;3.47;;;9.90;99.90;;;;;;5055236;28;20020;-84
2022/10/03 01:46:52;;;;;;;16.97;3.27;;;9.90;99.90;;;;;;5017900;28;20046;-85
2022/10/03 01:49:32;;;;;;;18.30;3.70;;;9.90;99.90;;;;;;5034488;28;20022;-85
2022/10/03 01:52:24;;;;;;;13.33;3.60;;;9.90;99.90;;;;;;5043091;28;20116;-85
2022/10/03 01:55:13;;;;;;;11.80;3.10;;;9.80;99.90;;;;;;5037819;28;20082;-85
2022/10/03 01:58:10;;;;;;;10.47;2.93;;;9.90;99.90;;;;;;5037531;28;20021;-86
2022/10/03 02:00:52;;;;;;;7.97;3.10;;;9.90;99.90;;;;;;5037213;28;20547;-85
2022/10/03 02:03:30;;;;;;;9.53;2.90;;;9.90;99.90;;;;;;5037458;28;20037;-86
2022/10/03 02:06:44;;;;;;;9.20;3.07;;;9.80;99.90;;;;;;5037272;28;20053;-85
2022/10/03 02:09:18;;;;;;;18.63;3.40;;;9.80;99.90;;;;;;4993929;28;20173;-86
2022/10/03 02:11:49;;;;;;;11.55;3.60;;;9.80;99.90;;;;;;5031495;28;20040;-86
2022/10/03 02:14:26;;;;;;;12.90;3.63;;;9.80;99.90;;;;;;5037351;28;20029;-86
2022/10/03 02:17:01;;;;;;;10.37;3.07;;;9.80;99.90;;;;;;5033294;28;20060;-85
2022/10/03 02:19:49;;;;;;;15.30;3.60;;;9.80;99.90;;;;;;5036834;28;20029;-85
2022/10/03 02:22:35;;;;;;;13.07;3.50;;;9.80;99.90;;;;;;5017102;28;20026;-85
2022/10/03 02:25:13;;;;;;;12.40;3.20;;;9.80;99.90;;;;;;5017548;28;20104;-85
2022/10/03 02:27:57;;;;;;;12.10;3.27;;;9.80;99.90;;;;;;5035068;28;20473;-85
2022/10/03 02:30:47;;;;;;;15.57;3.23;;;9.80;99.90;;;;;;5033492;28;20505;-85
2022/10/03 02:33:43;;;;;;;11.27;3.33;;;9.80;99.90;;;;;;5033427;28;20067;-85
2022/10/03 02:36:26;;;;;;;9.50;2.93;;;9.80;99.90;;;;;;4964058;28;20377;-86
2022/10/03 02:39:25;;;;;;;13.65;3.45;;;9.80;99.90;;;;;;5033439;28;20029;-85
2022/10/03 02:41:54;;;;;;;11.20;3.00;;;9.80;99.90;;;;;;5033399;28;20096;-85
2022/10/03 02:44:38;;;;;;;9.80;4.00;;;9.80;99.90;;;;;;5034484;28;20025;-86
2022/10/03 02:47:37;;;;;;;7.85;3.05;;;9.80;99.90;;;;;;5033850;28;20021;-85
2022/10/03 02:50:48;;;;;;;9.43;2.60;;;9.80;99.90;;;;;;5033368;28;20033;-85
2022/10/03 02:53:25;;;;;;;7.47;2.77;;;9.80;99.90;;;;;;5029210;28;20025;-86
2022/10/03 02:56:29;;;;;;;14.93;3.37;;;9.80;99.90;;;;;;5033993;28;20029;-86
2022/10/03 02:59:18;;;;;;;7.83;3.40;;;9.70;99.90;;;;;;5033159;28;20132;-86
2022/10/03 03:02:25;;;;;;;10.77;3.80;;;9.70;99.90;;;;;;5033016;28;20111;-86
2022/10/03 03:05:06;;;;;;;7.43;3.03;;;9.70;99.90;;;;;;5033149;28;20026;-86
2022/10/03 03:08:04;;;;;;;12.93;3.03;;;9.70;99.90;;;;;;5033038;28;20029;-85
2022/10/03 03:11:17;;;;;;;10.10;3.60;;;9.80;99.90;;;;;;5033064;28;20018;-86
2022/10/03 03:14:17;;;;;;;9.10;3.30;;;9.70;99.90;;;;;;5032826;28;20029;-85
2022/10/03 03:16:52;;;;;;;10.30;3.20;;;9.80;99.90;;;;;;5033617;28;20056;-85
2022/10/03 03:19:23;;;;;;;11.37;2.90;;;9.70;99.90;;;;;;5035919;28;20560;-85
2022/10/03 03:22:24;;;;;;;11.43;4.30;;;9.70;99.90;;;;;;5036048;28;20033;-85
2022/10/03 03:24:56;;;;;;;11.53;3.73;;;9.70;99.90;;;;;;5035843;28;20033;-85
2022/10/03 03:27:37;;;;;;;9.57;3.07;;;9.70;99.90;;;;;;5035778;28;20065;-85
2022/10/03 03:30:17;;;;;;;11.13;3.73;;;9.70;99.90;;;;;;5036118;28;20040;-85
2022/10/03 03:33:06;;;;;;;8.90;3.47;;;9.70;99.90;;;;;;5035151;28;20481;-85
2022/10/03 03:35:50;;;;;;;9.53;3.27;;;9.70;99.90;;;;;;5035674;28;20021;-85
2022/10/03 03:38:41;;;;;;;11.15;3.42;;;9.70;99.90;;;;;;5035257;28;20078;-81
2022/10/03 03:41:39;;;;;;;9.60;3.27;;;9.70;99.90;;;;;;5052075;28;20040;-81
2022/10/03 03:44:24;;;;;;;9.17;3.03;;;9.70;99.90;;;;;;5052066;28;20108;-81
2022/10/03 03:47:32;;;;;;;13.27;4.27;;;9.70;99.90;;;;;;5050131;28;20060;-85
2022/10/03 03:50:22;;;;;;;7.90;3.17;;;9.70;99.90;;;;;;5035336;28;20029;-85
2022/10/03 03:53:05;;;;;;;14.77;3.70;;;9.70;99.90;;;;;;5052125;28;20419;-84
2022/10/03 03:55:55;;;;;;;7.33;2.70;;;9.60;99.90;;;;;;5052293;28;20025;-84
2022/10/03 03:58:54;;;;;;;8.80;3.60;;;9.60;99.90;;;;;;5052253;28;20033;-85
2022/10/03 04:01:34;;;;;;;8.80;3.27;;;9.60;99.90;;;;;;5036665;28;20028;-80
2022/10/03 04:04:41;;;;;;;13.37;4.20;;;9.60;99.90;;;;;;5056241;28;20049;-81
2022/10/03 04:07:48;;;;;;;10.90;3.50;;;9.50;99.90;;;;;;4995066;28;20039;-81
2022/10/03 04:10:26;;;;;;;12.53;3.00;;;9.50;99.90;;;;;;5054956;28;20021;-81
2022/10/03 04:12:55;;;;;;;9.87;3.33;;;9.50;99.90;;;;;;5054191;28;20017;-81
2022/10/03 04:15:58;;;;;;;17.00;3.23;;;9.50;99.90;;;;;;5053178;28;20028;-81
2022/10/03 04:18:59;;;;;;;7.37;3.50;;;9.50;99.90;;;;;;5053884;28;20025;-81
2022/10/03 04:21:48;;;;;;;8.77;3.70;;;9.40;99.90;;;;;;5028842;28;20060;-81
2022/10/03 04:24:26;;;;;;;16.27;4.23;;;9.40;99.90;;;;;;5053923;28;20025;-81
2022/10/03 04:26:52;;;;;;;11.43;3.83;;;9.40;99.90;;;;;;5054559;28;20056;-81
2022/10/03 04:29:32;;;;;;;13.13;4.63;;;9.40;99.90;;;;;;5055334;28;20025;-81
2022/10/03 04:32:22;;;;;;;7.50;3.40;;;9.40;99.90;;;;;;5054598;28;20029;-81
2022/10/03 04:35:15;;;;;;;6.93;3.67;;;9.40;99.90;;;;;;5052330;28;20473;-81
2022/10/03 04:38:12;;;;;;;11.10;3.70;;;9.40;99.90;;;;;;5054076;28;20071;-81
2022/10/03 04:40:51;;;;;;;10.77;3.27;;;9.40;99.90;;;;;;5035707;28;20468;-82
2022/10/03 04:43:29;;;;;;;14.77;3.70;;;9.40;99.90;;;;;;5047912;28;20024;-81
2022/10/03 04:46:29;;;;;;;14.43;3.77;;;9.30;99.90;;;;;;5027174;28;20485;-81
2022/10/03 04:49:15;;;;;;;15.43;3.97;;;9.30;99.90;;;;;;5036866;28;20017;-81
2022/10/03 04:51:49;;;;;;;11.00;4.00;;;9.30;99.90;;;;;;5049462;28;20040;-81
2022/10/03 04:54:15;;;;;;;12.40;4.60;;;9.30;99.90;;;;;;5040093;28;20025;-81
2022/10/03 04:57:03;;;;;;;12.93;3.20;;;9.30;99.90;;;;;;5057694;28;20031;-81
2022/10/03 04:59:31;;;;;;;8.40;3.80;;;9.20;99.90;;;;;;5060786;28;20099;-81
2022/10/03 05:02:11;;;;;;;26.23;3.73;;;9.30;99.90;;;;;;5058557;28;20036;-81
2022/10/03 05:05:14;;;;;;;18.97;3.23;;;9.20;99.90;;;;;;5060539;28;20076;-81
2022/10/03 05:08:11;;;;;;;10.83;3.50;;;9.20;99.90;;;;;;5052147;28;20041;-82
2022/10/03 05:11:06;;;;;;;5.83;2.50;;;9.10;99.90;;;;;;5038849;28;20021;-79
2022/10/03 05:14:04;;;;;;;3.93;2.00;;;9.10;99.90;;;;;;5039358;28;20025;-80
2022/10/03 05:16:40;;;;;;;21.27;2.27;;;9.10;99.90;;;;;;5058086;28;20031;-80
2022/10/03 05:19:47;;;;;;;18.80;2.10;;;9.10;99.90;;;;;;5055241;28;20021;-81
2022/10/03 05:22:51;;;;;;;29.90;2.17;;;9.10;99.90;;;;;;5038913;28;20052;-81
2022/10/03 05:25:37;;;;;;;16.30;2.80;;;9.10;99.90;;;;;;5055618;28;20051;-80
2022/10/03 05:28:35;;;;;;;13.73;2.67;;;9.10;99.90;;;;;;5046928;28;20026;-80
2022/10/03 05:31:13;;;;;;;11.90;2.60;;;9.00;99.90;;;;;;5024155;28;20445;-81
2022/10/03 05:33:45;;;;;;;11.37;2.80;;;9.00;99.90;;;;;;5049268;28;20032;-80
2022/10/03 05:36:19;;;;;;;14.67;2.67;;;9.00;99.90;;;;;;5038454;28;20029;-81
2022/10/03 05:38:57;;;;;;;8.93;2.60;;;9.00;99.90;;;;;;5036844;28;20378;-81
2022/10/03 05:41:29;;;;;;;8.53;2.80;;;9.10;99.90;;;;;;5050178;28;20021;-80
2022/10/03 05:44:15;;;;;;;13.83;3.00;;;9.10;99.90;;;;;;5022515;28;20112;-81
2022/10/03 05:46:56;;;;;;;35.60;3.03;;;9.00;99.90;;;;;;5034434;28;20018;-81
2022/10/03 05:49:39;;;;;;;10.80;3.13;;;9.00;99.90;;;;;;5032057;28;20128;-81
2022/10/03 05:52:21;;;;;;;6.13;2.53;;;9.10;99.90;;;;;;5048226;28;20064;-81
2022/10/03 05:55:29;;;;;;;10.13;2.53;;;9.10;99.90;;;;;;5037479;28;20079;-81
2022/10/03 05:58:19;;;;;;;12.10;2.50;;;9.00;99.90;;;;;;5036767;28;20372;-81
2022/10/03 06:01:03;;;;;;;10.00;2.90;;;9.10;99.90;;;;;;5038168;28;20399;-81
2022/10/03 06:03:53;;;;;;;12.38;2.97;;;9.10;99.90;;;;;;5029543;28;20026;-82
2022/10/03 06:06:27;;;;;;;76.93;4.53;;;9.10;99.90;;;;;;5034012;28;20094;-81
2022/10/03 06:09:25;;;;;;;82.97;4.43;;;9.10;99.90;;;;;;5032952;28;20032;-82
2022/10/03 06:12:01;;;;;;;51.80;3.80;;;9.10;99.90;;;;;;5034975;28;20116;-81
2022/10/03 06:14:34;;;;;;;33.73;3.93;;;9.10;99.90;;;;;;5035612;28;20033;-81
2022/10/03 06:17:23;;;;;;;29.67;2.92;;;9.10;99.90;;;;;;5034544;28;20029;-81
2022/10/03 06:19:54;;;;;;;23.50;2.87;;;9.10;99.90;;;;;;5035676;28;20048;-81
2022/10/03 06:23:17;;;;;;;19.53;2.27;;;9.10;99.90;;;;;;5020978;28;20064;-81
2022/10/03 06:26:16;;;;;;;11.70;2.50;;;9.10;99.90;;;;;;5019869;28;20083;-80
2022/10/03 06:28:45;;;;;;;10.67;2.87;;;9.10;99.90;;;;;;5037869;28;20029;-81
2022/10/03 06:31:59;;;;;;;17.17;2.60;;;9.10;99.90;;;;;;5036863;28;20059;-81
2022/10/03 06:35:02;;;;;;;15.87;2.33;;;9.10;99.90;;;;;;5048496;28;20029;-81
2022/10/03 06:37:51;;;;;;;11.23;2.53;;;9.10;99.90;;;;;;5038214;28;20032;-81
2022/10/03 06:40:57;;;;;;;10.37;2.87;;;9.10;99.90;;;;;;5036540;28;20025;-81
2022/10/03 06:43:44;;;;;;;8.53;2.63;;;9.20;99.90;;;;;;5037428;28;20021;-83
2022/10/03 06:46:18;;;;;;;4.50;2.50;;;9.20;99.90;;;;;;5034488;28;20033;-82
2022/10/03 06:49:11;;;;;;;13.70;2.83;;;9.20;99.90;;;;;;5034794;28;20033;-81
2022/10/03 06:52:05;;;;;;;14.77;2.67;;;9.30;99.90;;;;;;5032113;28;20050;-81
2022/10/03 06:55:03;;;;;;;6.75;2.95;;;9.40;99.90;;;;;;5028544;28;20056;-82
2022/10/03 06:58:22;;;;;;;5.30;2.77;;;9.40;99.90;;;;;;5051897;28;20031;-82
2022/10/03 07:01:11;;;;;;;5.83;2.87;;;9.50;99.90;;;;;;5015816;28;20045;-82
2022/10/03 07:03:43;;;;;;;5.70;3.27;;;9.50;99.90;;;;;;5042421;28;20052;-81
2022/10/03 07:06:33;;;;;;;10.80;3.53;;;9.60;99.90;;;;;;5033647;28;20036;-82
2022/10/03 07:09:31;;;;;;;8.17;3.13;;;9.60;99.90;;;;;;5032120;28;20025;-82
2022/10/03 07:12:14;;;;;;;10.07;3.97;;;9.70;99.90;;;;;;5035441;28;20143;-82
2022/10/03 07:15:04;;;;;;;9.30;4.20;;;9.70;99.90;;;;;;5029260;28;20035;-81
2022/10/03 07:17:43;;;;;;;9.20;4.07;;;9.80;99.90;;;;;;5036494;28;20117;-82
2022/10/03 07:20:16;;;;;;;11.37;3.53;;;9.80;99.90;;;;;;5033996;28;20063;-82
2022/10/03 07:23:15;;;;;;;7.73;4.00;;;9.90;99.90;;;;;;5029523;28;20049;-82
2022/10/03 07:25:57;;;;;;;8.27;3.87;;;9.90;99.90;;;;;;5043749;28;20032;-82
2022/10/03 07:28:52;;;;;;;8.33;4.13;;;9.90;99.90;;;;;;5042728;28;20032;-81
2022/10/03 07:31:36;;;;;;;7.73;3.47;;;10.00;99.90;;;;;;5031941;28;20036;-80
2022/10/03 07:34:30;;;;;;;12.90;4.80;;;10.00;99.90;;;;;;5031478;28;20399;-81
2022/10/03 07:40:10;;;;;;;9.43;3.90;;;10.10;99.90;;;;;;5048245;28;20039;-81
2022/10/03 07:42:46;;;;;;;13.73;4.47;;;10.20;99.90;;;;;;5034308;28;20025;-81
2022/10/03 07:45:38;;;;;;;11.30;3.90;;;10.20;99.90;;;;;;5043409;28;20035;-81
2022/10/03 07:48:03;;;;;;;13.33;4.77;;;10.30;99.90;;;;;;5032045;28;20033;-81
2022/10/03 07:50:51;;;;;;;9.10;3.90;;;10.30;99.90;;;;;;5033144;28;20024;-81
2022/10/03 07:54:08;;;;;;;9.80;4.10;;;10.40;99.90;;;;;;5015392;28;20136;-81
2022/10/03 07:57:00;;;;;;;11.20;4.17;;;10.50;99.90;;;;;;4976850;28;20681;-82
2022/10/03 07:59:48;;;;;;;9.30;3.73;;;10.50;99.90;;;;;;5030655;28;20053;-82
2022/10/03 08:02:33;;;;;;;11.05;4.30;;;10.60;99.90;;;;;;5034857;28;20393;-82
2022/10/03 08:05:28;;;;;;;7.47;3.33;;;10.60;99.90;;;;;;5052882;28;20044;-82
2022/10/03 08:08:23;;;;;;;12.60;4.60;;;10.80;99.90;;;;;;5034905;28;20107;-82
2022/10/03 08:11:13;;;;;;;10.43;3.95;;;10.90;99.90;;;;;;5035188;28;20032;-82
2022/10/03 08:14:15;;;;;;;12.95;3.95;;;10.90;99.90;;;;;;5051904;28;20025;-81
2022/10/03 08:17:03;;;;;;;8.02;3.60;;;11.10;99.90;;;;;;5051838;28;20420;-83
2022/10/03 08:19:37;;;;;;;9.82;3.83;;;11.20;99.90;;;;;;5054414;28;20051;-82
2022/10/03 08:22:28;;;;;;;12.65;3.17;;;11.30;99.90;;;;;;5037139;28;20052;-82
2022/10/03 08:25:25;;;;;;;11.60;3.92;;;11.50;99.90;;;;;;5019114;28;20040;-82
2022/10/03 08:28:25;;;;;;;11.50;3.55;;;11.50;99.90;;;;;;5036720;28;20033;-82
2022/10/03 08:31:18;;;;;;;10.20;3.50;;;11.70;99.90;;;;;;5035625;28;20083;-82
2022/10/03 08:34:09;;;;;;;8.93;3.53;;;11.80;99.90;;;;;;5035608;28;20619;-82
2022/10/03 08:37:11;;;;;;;9.00;3.03;;;11.80;99.90;;;;;;5031689;28;20033;-82
2022/10/03 08:40:10;;;;;;;10.15;3.58;;;11.90;99.90;;;;;;5035160;28;20040;-82
2022/10/03 08:43:21;;;;;;;9.00;3.35;;;12.00;99.90;;;;;;5036297;28;20029;-81
2022/10/03 08:46:21;;;;;;;14.15;3.25;;;12.10;99.90;;;;;;5022688;28;20066;-82
2022/10/03 08:49:10;;;;;;;8.00;2.53;;;12.20;99.90;;;;;;5038611;28;20029;-81
2022/10/03 08:52:15;;;;;;;12.45;3.22;;;12.30;99.90;;;;;;5016701;28;20039;-81
2022/10/03 08:55:18;;;;;;;13.68;3.15;;;12.40;99.90;;;;;;5018319;28;20040;-82
2022/10/03 08:58:34;;;;;;;6.15;2.65;;;12.50;99.90;;;;;;5019018;28;20033;-81
2022/10/03 09:01:24;;;;;;;9.60;3.13;;;12.60;99.90;;;;;;4901782;29;20104;-82
2022/10/03 09:04:17;;;;;;;11.48;2.78;;;12.80;99.90;;;;;;4917649;29;20149;-83
2022/10/03 09:07:11;;;;;;;9.50;3.05;;;12.90;99.90;;;;;;5000651;28;20045;-82
2022/10/03 09:09:46;;;;;;;8.02;2.40;;;13.00;99.90;;;;;;5018294;28;20571;-82
2022/10/03 09:12:51;;;;;;;11.73;2.42;;;13.10;99.90;;;;;;5034432;28;20040;-82
2022/10/03 09:15:38;;;;;;;7.65;2.47;;;13.20;99.90;;;;;;5034571;28;20111;-82
2022/10/03 09:18:27;;;;;;;8.73;2.20;;;13.30;99.90;;;;;;5034697;28;20025;-82
2022/10/03 09:21:36;;;;;;;6.90;2.83;;;13.40;99.90;;;;;;5017847;28;20030;-82
2022/10/03 09:24:31;;;;;;;6.82;1.83;;;13.50;99.90;;;;;;4987982;28;20030;-83
2022/10/03 09:27:18;;;;;;;11.13;2.50;;;13.70;99.90;;;;;;5034341;28;20417;-82
2022/10/03 09:30:07;;;;;;;8.35;2.30;;;13.80;99.90;;;;;;5033235;28;20026;-81
2022/10/03 09:33:08;;;;;;;5.03;1.52;;;13.90;99.90;;;;;;5052881;28;20035;-80
2022/10/03 09:36:05;;;;;;;9.82;2.40;;;14.10;99.90;;;;;;5054208;28;20547;-81
2022/10/03 09:38:40;;;;;;;11.30;2.03;;;14.20;99.90;;;;;;5054087;28;20123;-82
2022/10/03 09:41:37;;;;;;;5.85;1.73;;;14.40;99.90;;;;;;5055257;28;20033;-81
2022/10/03 09:44:03;;;;;;;8.35;1.77;;;14.60;99.90;;;;;;5010743;28;20082;-81
2022/10/03 09:47:21;;;;;;;7.18;1.85;;;14.90;99.90;;;;;;5037140;28;20029;-80
2022/10/03 09:50:12;;;;;;;8.73;1.75;;;15.10;99.90;;;;;;5038973;28;20029;-82
2022/10/03 09:53:01;;;;;;;10.35;2.03;;;15.60;99.90;;;;;;5037276;28;20473;-83
2022/10/03 09:55:58;;;;;;;7.75;1.38;;;15.90;99.90;;;;;;5037645;28;20029;-82
2022/10/03 09:58:34;;;;;;;9.70;2.05;;;16.40;99.90;;;;;;5037121;28;20025;-80
2022/10/03 10:01:13;;;;;;;6.03;1.00;;;17.00;99.90;;;;;;5035147;28;20063;-80
2022/10/03 10:03:45;;;;;;;9.00;1.65;;;17.60;99.90;;;;;;5017699;28;20018;-79
2022/10/03 10:06:28;;;;;;;6.93;1.50;;;18.20;99.90;;;;;;5044384;28;20108;-81
2022/10/03 10:08:57;;;;;;;4.88;0.80;;;18.80;99.90;;;;;;5037637;28;20392;-82
2022/10/03 10:11:49;;;;;;;5.35;1.13;;;19.50;99.90;;;;;;5037253;28;20056;-82
2022/10/03 10:14:31;;;;;;;5.90;0.95;;;20.20;99.90;;;;;;5036777;28;20469;-82
2022/10/03 10:17:34;;;;;;;4.90;1.45;;;21.20;98.00;;;;;;5037548;28;20052;-81
2022/10/03 10:20:19;;;;;;;5.00;0.80;;;22.10;95.80;;;;;;5033878;28;20409;-82
2022/10/03 10:22:47;;;;;;;4.40;0.77;;;23.00;94.30;;;;;;5034823;28;20155;-81
2022/10/03 10:25:37;;;;;;;4.68;0.80;;;23.70;91.50;;;;;;5034375;28;20053;-82
2022/10/03 10:28:31;;;;;;;6.38;1.00;;;23.80;83.60;;;;;;5033993;28;20025;-80
2022/10/03 10:31:26;;;;;;;;;;;23.80;78.80;;;;;;5034058;28;20462;-80
2022/10/03 10:34:22;;;;;;;6.78;0.95;;;23.90;77.80;;;;;;4980532;28;19934;-82
2022/10/03 10:37:17;;;;;;;6.57;1.17;;;23.90;76.30;;;;;;5034511;28;20060;-82
2022/10/03 10:40:02;;;;;;;6.50;1.00;;;23.60;73.00;;;;;;5033962;28;20037;-82
2022/10/03 10:43:00;;;;;;;6.22;1.20;;;23.80;71.40;;;;;;5033724;28;20029;-82
2022/10/03 10:45:46;;;;;;;5.63;0.90;;;23.80;69.80;;;;;;5022136;28;20042;-80
2022/10/03 10:48:39;;;;;;;4.35;0.73;;;23.90;69.60;;;;;;5033735;28;20477;-79
2022/10/03 10:51:28;;;;;;;3.67;0.70;;;24.30;66.70;;;;;;5033431;28;20025;-85
2022/10/03 10:54:31;;;;;;;5.63;0.80;;;24.70;66.40;;;;;;5042380;28;20040;-85
2022/10/03 10:57:26;;;;;;;5.28;1.05;;;25.40;64.40;;;;;;5037514;28;20033;-84
2022/10/03 11:00:30;;;;;;;4.45;0.63;;;26.00;62.50;;;;;;5044874;28;20041;-87
2022/10/03 11:03:11;;;;;;;;;;;26.30;61.40;;;;;;4982812;28;20138;-85
2022/10/03 11:05:45;;;;;;;5.03;0.75;;;26.00;59.90;;;;;;5037140;28;19912;-87
2022/10/03 11:08:36;;;;;;;6.63;1.13;;;25.90;59.60;;;;;;5036438;28;20131;-86
2022/10/03 11:11:34;;;;;;;5.63;0.85;;;26.10;58.50;;;;;;5037248;28;20377;-87
2022/10/03 11:14:36;;;;;;;5.07;0.70;;;26.60;57.60;;;;;;5036163;28;20029;-89
2022/10/03 11:17:10;;;;;;;2.78;0.60;;;27.00;56.70;;;;;;5036117;28;20033;-87
2022/10/03 11:20:13;;;;;;;3.20;0.60;;;27.00;56.10;;;;;;5035712;28;20029;-86
2022/10/03 11:22:57;;;;;;;4.72;0.70;;;27.00;54.20;;;;;;5048764;28;20064;-86
2022/10/03 11:25:39;;;;;;;2.35;0.77;;;26.90;53.00;;;;;;5036153;28;20029;-85
2022/10/03 11:28:27;;;;;;;5.18;0.88;;;26.70;52.60;;;;;;5035726;28;20055;-86
2022/10/03 11:31:27;;;;;;;3.97;0.73;;;26.60;52.20;;;;;;5036088;28;20037;-86
2022/10/03 11:34:25;;;;;;;6.75;0.90;;;26.70;52.60;;;;;;5035569;28;20421;-87
2022/10/03 11:37:07;;;;;;;5.57;0.70;;;26.70;51.50;;;;;;4990194;28;20037;-88
2022/10/03 11:40:00;;;;;;;2.47;0.40;;;26.80;50.90;;;;;;5034341;28;20511;-87
2022/10/03 11:42:38;;;;;;;4.07;0.68;;;27.00;51.00;;;;;;5035812;28;20142;-87
2022/10/03 11:45:25;;;;;;;6.43;0.80;;;26.90;50.50;;;;;;5035942;28;20500;-87
2022/10/03 11:47:55;;;;;;;5.97;0.60;;;26.70;50.00;;;;;;5035540;28;20094;-85
2022/10/03 11:50:30;;;;;;;2.90;0.60;;;26.70;50.10;;;;;;5035136;28;20021;-85
2022/10/03 11:53:15;;;;;;;4.85;0.80;;;26.80;49.60;;;;;;5053167;28;20116;-86
2022/10/03 11:55:50;;;;;;;5.60;0.80;;;26.80;49.10;;;;;;5036587;28;20033;-86
2022/10/03 11:58:31;;;;;;;4.75;0.80;;;26.70;49.10;;;;;;5020361;28;20026;-86
2022/10/03 12:01:28;;;;;;;3.15;0.70;;;26.80;49.20;;;;;;5013021;28;20042;-87
2022/10/03 12:04:09;;;;;;;3.97;0.52;;;27.10;49.10;;;;;;5011524;28;20025;-87
2022/10/03 12:09:43;;;;;;;4.63;0.73;;;27.80;49.00;;;;;;5017654;28;20025;-87
2022/10/03 12:12:18;;;;;;;3.40;0.70;;;28.10;47.90;;;;;;5016771;28;20141;-88
2022/10/03 12:14:48;;;;;;;3.60;0.75;;;28.20;47.60;;;;;;5016285;28;20026;-85
2022/10/03 12:17:22;;;;;;;5.93;0.88;;;28.40;47.60;;;;;;5017273;28;20026;-87
2022/10/03 12:20:01;;;;;;;5.63;0.60;;;28.60;47.20;;;;;;5017750;28;20022;-88
2022/10/03 12:22:51;;;;;;;4.15;0.80;;;28.90;47.10;;;;;;5017210;28;20026;-89
2022/10/03 12:25:36;;;;;;;3.13;0.60;;;29.10;46.40;;;;;;5016174;28;20014;-85
2022/10/03 12:28:23;;;;;;;4.40;0.70;;;28.90;44.80;;;;;;5017117;28;20038;-84
2022/10/03 12:30:54;;;;;;;3.78;0.47;;;28.30;43.20;;;;;;5017349;28;20112;-86
2022/10/03 12:33:44;;;;;;;4.22;0.50;;;27.70;44.20;;;;;;5032508;28;20172;-87
2022/10/03 12:36:18;;;;;;;3.95;0.60;;;27.00;45.00;;;;;;5032745;28;20387;-85
2022/10/03 12:38:50;;;;;;;2.55;0.43;;;26.40;45.80;;;;;;5026923;28;20014;-88
2022/10/03 12:41:34;;;;;;;5.20;0.63;;;25.80;46.50;;;;;;5015811;28;20168;-87
2022/10/03 12:44:08;;;;;;;6.22;0.73;;;25.30;47.10;;;;;;5015551;28;20022;-87
2022/10/03 12:46:47;;;;;;;3.88;0.60;;;24.80;47.80;;;;;;5017506;28;20064;-88
2022/10/03 12:49:30;;;;;;;5.10;0.52;;;24.30;48.50;;;;;;5015443;28;20030;-86
2022/10/03 12:52:00;;;;;;;6.18;0.80;;;23.90;49.40;;;;;;5015409;28;20065;-87
2022/10/03 12:54:48;;;;;;;4.28;0.77;;;23.50;50.40;;;;;;5003528;28;20022;-86
2022/10/03 12:57:32;;;;;;;4.38;0.73;;;23.10;51.40;;;;;;4995937;28;20057;-87
2022/10/03 13:00:16;;;;;;;6.90;0.75;;;22.80;52.00;;;;;;5024176;28;20069;-86
2022/10/03 13:03:01;;;;;;;6.05;0.80;;;22.60;53.20;;;;;;5015089;28;20030;-85
2022/10/03 13:05:39;;;;;;;5.63;0.90;;;22.40;53.90;;;;;;5025897;28;20025;-87
2022/10/03 13:08:30;;;;;;;3.95;0.63;;;22.30;54.60;;;;;;5035325;28;20389;-86
2022/10/03 13:11:15;;;;;;;3.60;0.40;;;22.20;54.90;;;;;;5034988;28;20036;-87
2022/10/03 13:14:00;;;;;;;2.88;0.57;;;22.20;54.90;;;;;;5035260;28;20041;-86
2022/10/03 13:16:39;;;;;;;3.47;0.70;;;22.00;55.20;;;;;;5035176;28;20021;-86
2022/10/03 13:19:19;;;;;;;3.88;0.70;;;21.90;55.30;;;;;;5036144;28;20075;-79
2022/10/03 13:22:12;;;;;;;5.63;0.70;;;21.90;55.60;;;;;;5050461;28;20052;-80
2022/10/03 13:25:20;;;;;;;4.60;0.75;;;21.80;55.60;;;;;;5034296;28;20021;-80
2022/10/03 13:27:58;;;;;;;4.40;0.80;;;21.70;55.80;;;;;;5002161;28;20068;-78
2022/10/03 13:30:52;;;;;;;5.38;0.75;;;21.60;55.90;;;;;;5026539;28;20018;-81
2022/10/03 13:33:23;;;;;;;;;;;21.50;56.30;;;;;;5034949;28;20378;-80
2022/10/03 13:36:01;;;;;;;6.00;0.80;;;21.40;56.70;;;;;;5035011;28;19952;-81
2022/10/03 13:38:54;;;;;;;7.65;0.75;;;21.30;56.90;;;;;;5018953;28;20022;-81
2022/10/03 13:41:43;;;;;;;6.72;0.77;;;21.20;57.40;;;;;;5011122;28;20057;-80
2022/10/03 13:44:31;;;;;;;3.50;0.55;;;21.10;57.40;;;;;;5031029;28;20080;-82
2022/10/03 13:47:09;;;;;;;5.65;0.77;;;21.00;57.70;;;;;;5024851;28;20026;-82
2022/10/03 13:49:50;;;;;;;3.67;0.70;;;21.00;57.80;;;;;;5033901;28;20033;-82
2022/10/03 13:52:34;;;;;;;7.30;0.73;;;21.00;58.00;;;;;;5034836;28;20030;-82
2022/10/03 13:55:27;;;;;;;3.33;0.65;;;21.20;58.20;;;;;;5033987;28;20018;-81
2022/10/03 13:58:25;;;;;;;4.67;0.80;;;21.60;58.50;;;;;;5034400;28;20029;-81
2022/10/03 14:01:06;;;;;;;3.85;0.57;;;22.00;57.50;;;;;;5021844;28;20136;-81
2022/10/03 14:03:56;;;;;;;3.72;0.57;;;22.20;57.00;;;;;;5034013;28;20026;-80
2022/10/03 14:06:40;;;;;;;4.43;0.65;;;22.30;56.50;;;;;;5034126;28;20025;-80
2022/10/03 14:09:24;;;;;;;3.75;0.50;;;22.40;56.20;;;;;;5034627;28;20454;-81
2022/10/03 14:11:58;;;;;;;6.43;0.70;;;22.60;56.30;;;;;;5034058;28;20060;-80
2022/10/03 14:14:24;;;;;;;5.35;0.60;;;22.80;56.00;;;;;;5034986;28;20037;-81
2022/10/03 14:16:55;;;;;;;5.13;0.80;;;23.00;55.60;;;;;;5033443;28;20034;-82
2022/10/03 14:19:40;;;;;;;4.50;0.70;;;23.00;55.30;;;;;;5034796;28;20029;-88
2022/10/03 14:22:42;;;;;;;6.70;0.88;;;23.00;55.20;;;;;;5035991;28;20033;-88
2022/10/03 14:25:25;;;;;;;6.10;0.50;;;22.80;55.20;;;;;;5033183;28;20393;-86
2022/10/03 14:28:11;;;;;;;9.02;0.80;;;22.60;55.50;;;;;;5034007;28;20033;-88
2022/10/03 14:30:37;;;;;;;7.90;0.90;;;22.30;55.80;;;;;;5050213;28;20022;-87
2022/10/03 14:33:45;;;;;;;7.40;0.80;;;22.00;56.30;;;;;;5050655;28;20028;-87
2022/10/03 14:36:38;;;;;;;6.60;0.70;;;21.70;56.90;;;;;;5050583;28;20022;-86
2022/10/03 14:39:35;;;;;;;5.70;0.70;;;21.40;57.40;;;;;;5050937;28;20017;-88
2022/10/03 14:42:06;;;;;;;6.22;0.80;;;21.20;58.00;;;;;;5034828;28;20109;-87